Time;durP1;ratioP1;P1;durP2;ratioP2;P2;SDS_P1;SDS_P2;PMS_P1;PMS_P2;Temp;Humidity;BMP_temperature;BMP_pressure;BME280_temperature;BME280_humidity;BME280_pressure;Samples;Min_cycle;Max_cycle;Signal;HPM_P1;HPM_P2
2021/09/08 00:00:30;;;;;;;13.97;12.47;;;14.80;1.00;;;;;;6217517;23;20443;-56
2021/09/08 00:02:59;;;;;;;15.40;13.80;;;14.80;99.90;;;;;;6217780;23;20418;-56
2021/09/08 00:05:26;;;;;;;13.27;11.87;;;14.80;99.90;;;;;;6218105;23;20427;-55
2021/09/08 00:07:53;;;;;;;14.27;12.77;;;14.80;99.90;;;;;;6217962;23;20423;-55
2021/09/08 00:10:20;;;;;;;15.47;13.57;;;14.70;99.90;;;;;;6217560;23;20436;-56
2021/09/08 00:12:48;;;;;;;14.60;12.23;;;14.70;99.90;;;;;;6217660;23;20419;-50
2021/09/08 00:15:16;;;;;;;16.33;12.90;;;14.70;99.90;;;;;;6217631;23;20422;-51
2021/09/08 00:17:45;;;;;;;15.30;12.93;;;14.70;99.90;;;;;;6217594;23;20723;-50
2021/09/08 00:20:15;;;;;;;14.80;13.30;;;14.80;99.90;;;;;;6217366;23;20896;-53
2021/09/08 00:22:42;;;;;;;14.00;12.40;;;14.80;99.90;;;;;;6217607;23;20424;-55
2021/09/08 00:25:10;;;;;;;14.87;12.57;;;14.70;99.90;;;;;;6217884;23;20418;-55
2021/09/08 00:27:37;;;;;;;15.43;12.77;;;14.60;99.90;;;;;;6217554;23;20430;-55
2021/09/08 00:30:05;;;;;;;13.80;12.07;;;14.60;99.90;;;;;;6217113;23;20873;-55
2021/09/08 00:32:34;;;;;;;13.63;12.30;;;14.50;99.90;;;;;;6217779;23;20423;-52
2021/09/08 00:35:03;;;;;;;14.10;12.30;;;14.50;99.90;;;;;;6216819;23;20425;-55
2021/09/08 00:37:30;;;;;;;15.53;12.97;;;14.40;99.90;;;;;;6218043;23;20415;-54
2021/09/08 00:39:57;;;;;;;14.20;12.27;;;14.40;99.90;;;;;;6217792;23;20541;-51
2021/09/08 00:42:23;;;;;;;15.00;13.50;;;14.40;99.90;;;;;;6217334;23;20422;-56
2021/09/08 00:44:50;;;;;;;15.13;13.27;;;14.40;99.90;;;;;;6217488;23;20717;-55
2021/09/08 00:47:19;;;;;;;14.27;12.50;;;14.40;99.90;;;;;;6217934;23;20423;-50
2021/09/08 00:49:49;;;;;;;14.40;12.10;;;14.30;99.90;;;;;;6218015;23;20514;-56
2021/09/08 00:52:18;;;;;;;17.17;12.37;;;14.30;1.00;;;;;;6217340;23;20485;-53
2021/09/08 00:54:48;;;;;;;14.30;11.30;;;14.30;1.00;;;;;;6217385;23;20465;-53
2021/09/08 00:57:16;;;;;;;15.63;12.60;;;14.20;1.00;;;;;;6217876;23;20419;-50
2021/09/08 00:59:44;;;;;;;17.53;12.10;;;14.20;1.00;;;;;;6217206;23;20894;-57
2021/09/08 01:02:20;;;;;;;15.20;11.67;;;14.30;1.00;;;;;;6217195;23;20410;-53
2021/09/08 01:04:48;;;;;;;14.33;12.57;;;14.20;1.00;;;;;;6216837;23;20427;-51
2021/09/08 01:07:16;;;;;;;15.57;12.10;;;14.20;1.00;;;;;;6217773;23;20449;-51
2021/09/08 01:09:44;;;;;;;14.23;12.30;;;14.20;1.00;;;;;;6217760;23;20421;-53
2021/09/08 01:12:11;;;;;;;13.37;11.97;;;14.20;99.90;;;;;;6217204;23;20775;-52
2021/09/08 01:14:38;;;;;;;13.90;12.50;;;14.20;99.90;;;;;;6217220;23;20729;-53
2021/09/08 01:17:06;;;;;;;13.70;12.30;;;14.10;99.90;;;;;;6217263;23;20438;-56
2021/09/08 01:19:33;;;;;;;14.87;12.10;;;14.10;1.00;;;;;;6217377;23;20873;-53
2021/09/08 01:22:00;;;;;;;14.03;12.53;;;14.10;1.00;;;;;;6216900;23;20415;-52
2021/09/08 01:24:28;;;;;;;15.13;13.20;;;14.10;1.00;;;;;;6217022;23;20419;-53
2021/09/08 01:26:56;;;;;;;13.17;11.87;;;14.10;1.00;;;;;;6217236;23;20880;-53
2021/09/08 01:29:23;;;;;;;14.63;13.10;;;14.10;99.90;;;;;;6217516;23;20419;-57
2021/09/08 01:31:55;;;;;;;14.40;12.50;;;14.10;99.90;;;;;;6217378;23;20418;-56
2021/09/08 01:34:23;;;;;;;14.90;12.67;;;14.20;99.90;;;;;;6218390;23;20898;-57
2021/09/08 01:36:53;;;;;;;12.17;10.97;;;14.10;99.90;;;;;;6219144;23;20850;-57
2021/09/08 01:39:20;;;;;;;18.70;13.00;;;14.10;99.90;;;;;;6219328;23;20481;-56
2021/09/08 01:41:50;;;;;;;13.90;12.00;;;14.00;99.90;;;;;;6219250;23;20453;-56
2021/09/08 01:44:24;;;;;;;15.30;13.47;;;13.90;99.90;;;;;;6218493;23;20472;-56
2021/09/08 01:46:53;;;;;;;14.60;12.90;;;13.90;99.90;;;;;;6219279;23;20418;-53
2021/09/08 01:49:20;;;;;;;15.40;12.47;;;13.80;1.00;;;;;;6219573;23;20417;-57
2021/09/08 01:51:47;;;;;;;17.93;13.23;;;13.90;1.00;;;;;;6218862;23;20469;-53
2021/09/08 01:54:16;;;;;;;13.83;12.40;;;13.80;99.90;;;;;;6218899;23;20465;-55
2021/09/08 01:56:43;;;;;;;13.13;11.70;;;13.80;99.90;;;;;;6218817;23;20727;-54
2021/09/08 01:59:12;;;;;;;13.17;11.87;;;13.80;99.90;;;;;;6219225;23;20485;-50
2021/09/08 02:01:39;;;;;;;14.80;13.30;;;13.80;99.90;;;;;;6218408;23;20558;-53
2021/09/08 02:04:07;;;;;;;15.13;13.23;;;13.80;99.90;;;;;;6219235;23;20418;-53
2021/09/08 02:06:34;;;;;;;15.73;12.10;;;13.70;99.90;;;;;;6218090;23;20473;-54
2021/09/08 02:09:02;;;;;;;14.23;12.67;;;13.70;99.90;;;;;;6218761;23;20421;-56
2021/09/08 02:11:35;;;;;;;14.43;12.77;;;13.70;99.90;;;;;;6219035;23;20422;-57
2021/09/08 02:14:03;;;;;;;14.30;12.70;;;13.60;99.90;;;;;;6219006;23;20849;-50
2021/09/08 02:16:32;;;;;;;15.20;13.47;;;13.60;99.90;;;;;;6218915;23;20473;-56
2021/09/08 02:18:59;;;;;;;15.77;13.17;;;13.60;1.00;;;;;;6219142;23;20447;-53
2021/09/08 02:21:28;;;;;;;15.37;12.80;;;13.60;1.00;;;;;;6218869;23;20741;-52
2021/09/08 02:23:55;;;;;;;15.50;13.00;;;13.50;99.90;;;;;;6219186;23;20419;-53
2021/09/08 02:26:22;;;;;;;14.53;12.73;;;13.50;1.00;;;;;;6218228;23;20429;-55
2021/09/08 02:28:50;;;;;;;17.33;12.43;;;13.50;1.00;;;;;;6218755;23;20422;-57
2021/09/08 02:31:17;;;;;;;12.97;10.93;;;13.40;1.00;;;;;;6218602;23;20422;-55
2021/09/08 02:33:45;;;;;;;13.93;12.53;;;13.40;1.00;;;;;;6218766;23;20485;-57
2021/09/08 02:36:12;;;;;;;13.63;12.27;;;13.40;99.90;;;;;;6217841;23;20451;-57
2021/09/08 02:38:39;;;;;;;14.70;13.17;;;13.40;1.00;;;;;;6218324;23;20474;-54
2021/09/08 02:41:08;;;;;;;20.83;13.80;;;13.40;1.00;;;;;;6218225;23;20423;-54
2021/09/08 02:43:35;;;;;;;14.60;12.87;;;13.30;99.90;;;;;;6218507;23;20431;-56
2021/09/08 02:46:03;;;;;;;14.00;12.60;;;13.40;1.00;;;;;;6218522;23;20419;-54
2021/09/08 02:48:31;;;;;;;13.83;12.10;;;13.30;17.10;;;;;;6218441;23;20798;-55
2021/09/08 02:51:00;;;;;;;15.77;13.30;;;13.30;99.90;;;;;;6218448;23;20423;-53
2021/09/08 02:53:27;;;;;;;19.00;13.47;;;13.30;99.90;;;;;;6217674;23;20458;-51
2021/09/08 02:55:54;;;;;;;14.40;12.97;;;13.30;85.10;;;;;;6218417;23;20481;-56
2021/09/08 02:58:21;;;;;;;13.97;12.50;;;13.30;88.80;;;;;;6217790;23;20453;-57
2021/09/08 03:00:48;;;;;;;15.93;13.37;;;13.30;99.90;;;;;;6217940;23;20749;-51
2021/09/08 03:03:18;;;;;;;18.47;13.00;;;13.20;1.00;;;;;;6218351;23;20701;-53
2021/09/08 03:05:45;;;;;;;15.97;12.50;;;13.20;99.90;;;;;;6218676;23;20451;-53
2021/09/08 03:08:16;;;;;;;15.27;12.90;;;13.20;99.90;;;;;;6217842;23;20423;-55
2021/09/08 03:10:44;;;;;;;13.43;11.70;;;13.20;99.90;;;;;;6218555;23;20485;-55
2021/09/08 03:13:11;;;;;;;15.17;12.83;;;13.30;1.00;;;;;;6218496;23;20423;-55
2021/09/08 03:15:38;;;;;;;14.90;13.30;;;13.20;99.90;;;;;;6218247;23;20423;-53
2021/09/08 03:18:06;;;;;;;14.03;12.60;;;13.20;99.90;;;;;;6217548;23;20425;-57
2021/09/08 03:20:33;;;;;;;14.10;12.70;;;13.20;55.40;;;;;;6218150;23;20458;-57
2021/09/08 03:23:00;;;;;;;15.93;13.40;;;13.10;72.80;;;;;;6217636;23;20469;-55
2021/09/08 03:25:29;;;;;;;14.83;12.77;;;13.10;1.00;;;;;;6218285;23;20714;-56
2021/09/08 03:27:56;;;;;;;15.87;13.50;;;13.10;24.40;;;;;;6218161;23;20423;-57
2021/09/08 03:30:23;;;;;;;13.87;12.20;;;13.10;59.50;;;;;;6217674;23;20415;-57
2021/09/08 03:32:50;;;;;;;13.77;11.50;;;13.00;1.00;;;;;;6218402;23;20474;-57
2021/09/08 03:35:17;;;;;;;16.00;12.40;;;13.00;99.90;;;;;;6218018;23;20418;-54
2021/09/08 03:37:44;;;;;;;16.00;13.83;;;13.00;93.80;;;;;;6218202;23;20430;-53
2021/09/08 03:40:13;;;;;;;17.83;14.37;;;13.00;3.70;;;;;;6218007;23;20457;-57
2021/09/08 03:42:41;;;;;;;16.77;13.70;;;12.90;95.70;;;;;;6217912;23;20422;-54
2021/09/08 03:45:09;;;;;;;18.30;13.17;;;12.90;99.90;;;;;;6217841;23;20419;-57
2021/09/08 03:47:36;;;;;;;18.20;14.10;;;12.90;1.00;;;;;;6217884;23;20845;-54
2021/09/08 03:50:06;;;;;;;19.70;14.23;;;12.90;1.00;;;;;;6217562;23;20440;-57
2021/09/08 03:52:33;;;;;;;14.57;13.00;;;12.90;99.90;;;;;;6217674;23;20415;-55
2021/09/08 03:55:01;;;;;;;13.60;12.20;;;12.90;99.90;;;;;;6217885;23;20418;-54
2021/09/08 03:57:27;;;;;;;15.20;12.33;;;12.90;1.00;;;;;;6217776;23;20454;-53
2021/09/08 03:59:58;;;;;;;15.00;13.10;;;12.90;12.00;;;;;;6217618;23;20936;-57
2021/09/08 04:02:25;;;;;;;18.93;13.90;;;12.80;1.00;;;;;;6217498;23;20476;-57
2021/09/08 04:04:52;;;;;;;14.90;12.63;;;12.80;99.90;;;;;;6217557;23;20418;-55
2021/09/08 04:07:19;;;;;;;15.63;13.40;;;12.70;1.00;;;;;;6217721;23;20419;-56
2021/09/08 04:09:46;;;;;;;13.47;12.00;;;12.70;98.60;;;;;;6217246;23;20422;-52
2021/09/08 04:12:12;;;;;;;14.97;13.37;;;12.70;99.90;;;;;;6217116;23;20422;-55
2021/09/08 04:14:39;;;;;;;14.43;13.03;;;12.70;99.90;;;;;;6217609;23;20494;-55
2021/09/08 04:17:10;;;;;;;17.37;13.30;;;12.80;23.70;;;;;;6217458;23;20423;-55
2021/09/08 04:19:37;;;;;;;13.67;11.03;;;12.70;1.00;;;;;;6217773;23;20473;-56
2021/09/08 04:22:07;;;;;;;18.00;12.50;;;12.70;1.00;;;;;;6217186;23;20418;-57
2021/09/08 04:24:34;;;;;;;13.20;11.90;;;12.70;1.00;;;;;;6217517;23;20427;-56
2021/09/08 04:27:01;;;;;;;16.10;13.40;;;12.70;1.00;;;;;;6217827;23;20712;-53
2021/09/08 04:29:27;;;;;;;15.37;12.80;;;12.70;1.00;;;;;;6217618;23;20451;-55
2021/09/08 04:31:54;;;;;;;15.90;13.20;;;12.70;1.00;;;;;;6218016;23;20419;-55
2021/09/08 04:34:23;;;;;;;13.23;11.93;;;12.70;1.00;;;;;;6217917;23;20455;-54
2021/09/08 04:36:50;;;;;;;14.40;13.00;;;12.70;99.90;;;;;;6217280;23;20504;-57
2021/09/08 04:39:19;;;;;;;14.53;13.03;;;12.70;99.90;;;;;;6215140;23;20450;-55
2021/09/08 04:41:46;;;;;;;15.30;13.10;;;12.60;99.90;;;;;;6216229;23;20850;-53
2021/09/08 04:44:13;;;;;;;16.70;13.50;;;12.60;99.90;;;;;;6215615;23;20850;-54
2021/09/08 04:46:40;;;;;;;15.40;13.27;;;12.60;57.60;;;;;;6216767;23;20422;-55
2021/09/08 04:49:06;;;;;;;17.27;13.30;;;12.60;99.90;;;;;;6217285;23;20450;-57
2021/09/08 04:51:35;;;;;;;14.23;12.47;;;12.60;1.00;;;;;;6217686;23;20415;-56
2021/09/08 04:54:02;;;;;;;14.20;11.40;;;12.50;99.90;;;;;;6217093;23;20877;-56
2021/09/08 04:56:29;;;;;;;14.33;12.70;;;12.50;99.90;;;;;;6217615;23;20838;-56
2021/09/08 04:58:56;;;;;;;14.43;12.03;;;12.50;1.00;;;;;;6216838;23;20427;-57
2021/09/08 05:01:23;;;;;;;15.50;12.30;;;12.50;1.00;;;;;;6216564;23;20784;-56
2021/09/08 05:03:50;;;;;;;18.10;13.40;;;12.60;1.00;;;;;;6217069;23;20846;-57
2021/09/08 05:06:17;;;;;;;21.40;13.93;;;12.70;1.00;;;;;;6217204;23;20426;-57
2021/09/08 05:08:46;;;;;;;16.60;12.93;;;12.70;1.00;;;;;;6217453;23;20536;-55
2021/09/08 05:11:13;;;;;;;14.27;12.37;;;12.60;99.90;;;;;;6218784;23;20411;-57
2021/09/08 05:13:40;;;;;;;17.53;13.60;;;12.70;1.00;;;;;;6218850;23;20426;-55
2021/09/08 05:16:11;;;;;;;15.23;12.63;;;12.70;1.00;;;;;;6217948;23;20472;-55
2021/09/08 05:18:37;;;;;;;15.70;13.17;;;12.60;1.00;;;;;;6218935;23;20423;-57
2021/09/08 05:21:04;;;;;;;15.43;13.17;;;12.70;1.00;;;;;;6217905;23;20497;-55
2021/09/08 05:23:31;;;;;;;14.10;12.70;;;12.70;1.00;;;;;;6219370;23;20846;-57
2021/09/08 05:26:00;;;;;;;14.30;12.90;;;12.70;1.00;;;;;;6219164;23;20411;-57
2021/09/08 05:28:27;;;;;;;17.33;13.57;;;12.70;1.00;;;;;;6218287;23;20644;-55
2021/09/08 05:30:54;;;;;;;15.40;13.53;;;12.80;1.00;;;;;;6218636;23;20418;-57
2021/09/08 05:33:28;;;;;;;17.80;13.27;;;12.80;1.00;;;;;;6218077;23;20822;-53
2021/09/08 05:35:55;;;;;;;15.43;13.83;;;12.90;19.00;;;;;;6217138;23;20414;-55
2021/09/08 05:38:22;;;;;;;15.47;13.80;;;13.00;39.70;;;;;;6217613;23;20825;-57
2021/09/08 05:40:52;;;;;;;13.23;11.83;;;13.10;55.90;;;;;;6216390;23;20521;-60
2021/09/08 05:43:23;;;;;;;15.67;13.57;;;13.10;1.00;;;;;;6219166;23;20430;-55
2021/09/08 05:45:53;;;;;;;16.73;13.60;;;13.30;99.90;;;;;;6219419;23;20430;-58
2021/09/08 05:48:20;;;;;;;15.80;13.60;;;13.30;99.90;;;;;;6218066;23;20415;-58
2021/09/08 05:50:47;;;;;;;17.00;14.47;;;13.40;99.90;;;;;;6217944;23;20418;-55
2021/09/08 05:53:14;;;;;;;15.93;13.83;;;13.50;1.00;;;;;;6218806;23;20422;-58
2021/09/08 05:55:41;;;;;;;16.63;13.10;;;13.60;1.00;;;;;;6219409;23;20422;-58
2021/09/08 05:58:08;;;;;;;18.57;13.67;;;13.70;99.90;;;;;;6218761;23;20912;-58
2021/09/08 06:00:36;;;;;;;19.07;14.50;;;13.90;99.90;;;;;;6218668;23;20486;-56
2021/09/08 06:03:03;;;;;;;16.80;14.17;;;14.00;51.90;;;;;;6218960;23;20512;-58
2021/09/08 06:05:33;;;;;;;18.83;14.27;;;14.20;1.00;;;;;;6218013;23;20425;-58
2021/09/08 06:08:03;;;;;;;17.33;14.17;;;14.20;1.00;;;;;;6217888;23;21477;-58
2021/09/08 06:10:31;;;;;;;22.13;15.57;;;14.40;99.90;;;;;;6217614;23;20465;-58
2021/09/08 06:12:58;;;;;;;23.70;15.63;;;14.50;99.90;;;;;;6217535;23;20862;-58
2021/09/08 06:15:27;;;;;;;18.83;15.20;;;14.70;99.90;;;;;;6218678;23;20911;-58
2021/09/08 06:17:57;;;;;;;17.83;15.97;;;14.80;99.90;;;;;;6219156;23;20437;-59
2021/09/08 06:20:24;;;;;;;23.87;16.73;;;15.00;99.90;;;;;;6218627;23;20490;-59
2021/09/08 06:22:51;;;;;;;21.80;15.50;;;15.20;99.90;;;;;;6219169;23;20414;-59
2021/09/08 06:25:20;;;;;;;22.10;15.87;;;15.40;99.90;;;;;;6218149;23;20866;-58
2021/09/08 06:27:46;;;;;;;17.00;14.43;;;15.60;13.70;;;;;;6218911;23;20790;-58
2021/09/08 06:30:16;;;;;;;24.50;14.20;;;15.80;27.60;;;;;;6217452;23;20850;-58
2021/09/08 06:32:43;;;;;;;22.70;15.70;;;16.00;6.00;;;;;;6218131;23;20418;-56
2021/09/08 06:35:16;;;;;;;18.70;15.80;;;16.10;1.00;;;;;;6218399;23;20423;-58
2021/09/08 06:37:43;;;;;;;20.27;14.50;;;16.40;1.00;;;;;;6218358;23;20423;-58
2021/09/08 06:40:11;;;;;;;24.10;15.73;;;16.60;1.00;;;;;;6218477;23;20458;-58
2021/09/08 06:42:38;;;;;;;19.57;15.63;;;16.90;1.00;;;;;;6217991;23;20419;-58
2021/09/08 06:45:06;;;;;;;19.00;15.23;;;17.10;1.00;;;;;;6218125;23;20425;-58
2021/09/08 06:47:34;;;;;;;22.00;14.63;;;17.20;1.00;;;;;;6218943;23;20430;-58
2021/09/08 06:50:01;;;;;;;27.30;15.57;;;17.50;1.00;;;;;;6218315;23;20422;-58
2021/09/08 06:52:32;;;;;;;22.40;15.50;;;17.80;1.00;;;;;;6218022;23;20854;-58
2021/09/08 06:55:02;;;;;;;20.33;13.80;;;18.10;1.00;;;;;;6218662;23;20418;-54
2021/09/08 06:57:32;;;;;;;21.90;14.30;;;18.30;1.00;;;;;;6218354;23;20411;-57
2021/09/08 06:59:59;;;;;;;22.60;14.47;;;18.60;1.00;;;;;;6217524;23;20451;-57
2021/09/08 07:02:28;;;;;;;19.60;15.00;;;18.90;1.00;;;;;;6217714;23;20451;-57
2021/09/08 07:04:57;;;;;;;21.47;14.70;;;19.20;1.00;;;;;;6218058;23;21001;-57
2021/09/08 07:07:23;;;;;;;21.27;15.13;;;19.50;1.00;;;;;;6218267;23;20422;-56
2021/09/08 07:09:57;;;;;;;25.97;14.50;;;19.70;1.00;;;;;;6218200;23;20415;-57
2021/09/08 07:12:24;;;;;;;16.23;14.53;;;19.90;1.00;;;;;;6217748;23;20425;-57
2021/09/08 07:14:53;;;;;;;18.77;14.83;;;20.20;1.00;;;;;;6218078;23;20423;-57
2021/09/08 07:17:23;;;;;;;27.97;16.47;;;20.50;1.00;;;;;;6217851;23;20423;-57
2021/09/08 07:19:50;;;;;;;21.40;14.27;;;20.70;1.00;;;;;;6217595;23;20739;-57
2021/09/08 07:22:17;;;;;;;17.07;14.30;;;20.90;1.00;;;;;;6217901;23;20735;-55
2021/09/08 07:24:44;;;;;;;19.70;14.70;;;21.00;1.00;;;;;;6217947;23;20459;-56
2021/09/08 07:27:13;;;;;;;23.27;17.00;;;21.10;1.00;;;;;;6217625;23;20418;-57
2021/09/08 07:29:42;;;;;;;24.07;17.20;;;20.90;1.00;;;;;;6217477;23;20454;-56
2021/09/08 07:32:14;;;;;;;17.27;14.27;;;21.00;1.00;;;;;;6216937;23;20862;-57
2021/09/08 07:34:41;;;;;;;18.10;14.80;;;21.40;1.00;;;;;;6216810;23;20418;-57
2021/09/08 07:37:12;;;;;;;18.40;15.07;;;21.70;1.00;;;;;;6216806;23;20868;-55
2021/09/08 07:39:39;;;;;;;18.33;16.00;;;22.20;1.00;;;;;;6217125;23;20411;-52
2021/09/08 07:42:06;;;;;;;17.07;15.30;;;22.40;1.00;;;;;;6216682;23;20419;-57
2021/09/08 07:44:37;;;;;;;19.07;14.47;;;22.50;1.00;;;;;;6216555;23;20444;-57
2021/09/08 07:47:04;;;;;;;19.07;13.90;;;22.70;1.00;;;;;;6216744;23;20423;-58
2021/09/08 07:49:31;;;;;;;13.80;12.43;;;22.80;1.00;;;;;;6215974;23;20425;-56
2021/09/08 07:51:58;;;;;;;14.73;13.43;;;23.10;99.90;;;;;;6216899;23;20846;-53
2021/09/08 07:54:26;;;;;;;16.53;14.00;;;23.50;99.90;;;;;;6217108;23;20889;-54
2021/09/08 07:56:54;;;;;;;14.37;12.87;;;23.80;99.90;;;;;;6216725;23;20423;-56
2021/09/08 07:59:21;;;;;;;14.90;12.30;;;24.10;99.90;;;;;;6216763;23;20425;-57
2021/09/08 08:01:49;;;;;;;16.07;12.63;;;24.40;99.90;;;;;;6216551;23;20458;-53
2021/09/08 08:04:18;;;;;;;14.43;12.97;;;24.70;99.90;;;;;;6215721;23;20422;-55
2021/09/08 08:06:50;;;;;;;14.87;12.80;;;24.70;99.90;;;;;;6216371;23;20709;-53
2021/09/08 08:09:19;;;;;;;13.37;12.23;;;24.90;99.90;;;;;;6216502;23;20461;-54
2021/09/08 08:11:46;;;;;;;13.00;11.73;;;25.10;99.90;;;;;;6216772;23;20417;-52
2021/09/08 08:14:16;;;;;;;12.53;11.37;;;25.30;99.90;;;;;;6216041;23;20426;-53
2021/09/08 08:16:47;;;;;;;12.37;11.37;;;25.30;99.90;;;;;;6217475;23;20725;-54
2021/09/08 08:19:15;;;;;;;12.43;11.20;;;25.40;99.90;;;;;;6218116;23;20458;-55
2021/09/08 08:21:42;;;;;;;12.93;11.67;;;25.70;99.90;;;;;;6216971;23;20457;-50
2021/09/08 08:24:09;;;;;;;13.87;12.67;;;25.80;99.90;;;;;;6217454;23;20700;-54
2021/09/08 08:26:39;;;;;;;12.90;11.70;;;26.00;99.90;;;;;;6215157;23;20882;-57
2021/09/08 08:29:09;;;;;;;13.00;11.90;;;26.10;99.90;;;;;;6216150;23;20415;-57
2021/09/08 08:31:38;;;;;;;13.63;12.20;;;26.40;99.90;;;;;;6216299;23;20453;-54
2021/09/08 08:34:05;;;;;;;12.43;11.43;;;26.10;99.90;;;;;;6216869;23;20415;-50
2021/09/08 08:36:33;;;;;;;12.13;11.10;;;26.10;99.90;;;;;;6216496;23;20422;-50
2021/09/08 08:39:00;;;;;;;13.33;12.33;;;26.10;99.90;;;;;;6216802;23;20430;-52
2021/09/08 08:41:27;;;;;;;12.07;11.00;;;26.10;99.90;;;;;;6217745;23;20451;-53
2021/09/08 08:43:54;;;;;;;12.80;11.70;;;26.40;99.90;;;;;;6217631;23;20425;-53
2021/09/08 08:46:24;;;;;;;13.07;11.93;;;26.50;99.90;;;;;;6215759;23;20418;-50
2021/09/08 08:48:51;;;;;;;13.13;11.93;;;26.60;99.90;;;;;;6216493;23;20419;-53
2021/09/08 08:51:18;;;;;;;12.37;11.30;;;26.90;99.90;;;;;;6216367;23;20880;-52
2021/09/08 08:53:49;;;;;;;12.43;11.30;;;27.10;99.90;;;;;;6216223;23;20927;-49
2021/09/08 08:56:16;;;;;;;12.57;11.50;;;27.00;99.90;;;;;;6216742;23;20404;-47
2021/09/08 08:58:43;;;;;;;12.30;11.20;;;26.90;99.90;;;;;;6216667;23;20419;-50
2021/09/08 09:01:20;;;;;;;13.40;12.13;;;26.80;99.90;;;;;;6214914;23;20459;-46
2021/09/08 09:04:02;;;;;;;15.00;13.47;;;27.10;99.90;;;;;;6216370;23;20414;-50
2021/09/08 09:06:30;;;;;;;12.43;11.20;;;27.20;99.90;;;;;;6216291;23;20476;-50
2021/09/08 09:09:05;;;;;;;12.30;11.20;;;27.40;99.90;;;;;;6217413;23;20394;-54
2021/09/08 09:11:33;;;;;;;12.43;11.13;;;27.40;99.90;;;;;;6217263;23;20410;-52
2021/09/08 09:14:01;;;;;;;13.27;11.97;;;27.60;99.90;;;;;;6217369;23;20434;-56
2021/09/08 09:16:29;;;;;;;12.43;11.33;;;27.80;99.90;;;;;;6216291;23;20870;-55
2021/09/08 09:18:56;;;;;;;11.87;10.93;;;28.00;99.90;;;;;;6217277;23;20723;-52
2021/09/08 09:21:25;;;;;;;11.63;10.30;;;28.10;99.90;;;;;;6217318;23;20500;-53
2021/09/08 09:23:54;;;;;;;12.33;11.23;;;28.40;99.90;;;;;;6216696;23;20422;-50
2021/09/08 09:26:24;;;;;;;13.63;11.70;;;28.60;99.90;;;;;;6216808;23;20723;-57
2021/09/08 09:29:09;;;;;;;13.03;11.93;;;28.60;99.90;;;;;;6217327;23;20423;-54
2021/09/08 09:31:50;;;;;;;12.70;11.40;;;28.70;99.90;;;;;;6217098;23;20442;-52
2021/09/08 09:34:20;;;;;;;11.20;10.30;;;28.90;99.90;;;;;;6216592;23;20458;-47
2021/09/08 09:36:56;;;;;;;12.80;11.50;;;28.80;99.90;;;;;;6214836;23;20521;-50
2021/09/08 09:39:24;;;;;;;12.70;11.37;;;28.80;99.90;;;;;;6216144;23;20521;-54
2021/09/08 09:41:52;;;;;;;11.30;10.30;;;28.50;99.90;;;;;;6216286;23;20447;-56
2021/09/08 09:44:22;;;;;;;12.40;11.40;;;28.50;99.90;;;;;;6215499;23;20455;-51
2021/09/08 09:46:55;;;;;;;13.80;12.63;;;28.90;99.90;;;;;;6215555;23;20419;-50
2021/09/08 09:49:23;;;;;;;11.20;10.10;;;29.10;99.90;;;;;;6215777;23;20411;-47
2021/09/08 09:51:54;;;;;;;12.73;11.73;;;29.20;99.90;;;;;;6216869;23;20960;-55
2021/09/08 09:54:21;;;;;;;12.73;11.63;;;29.50;99.90;;;;;;6216807;23;20419;-52
2021/09/08 09:56:53;;;;;;;11.27;10.37;;;29.70;99.90;;;;;;6218737;23;20414;-53
2021/09/08 09:59:21;;;;;;;11.33;10.43;;;29.80;99.90;;;;;;6219054;23;20842;-52
2021/09/08 10:01:53;;;;;;;11.53;10.63;;;30.00;99.90;;;;;;6218526;23;20749;-51
2021/09/08 10:04:21;;;;;;;11.60;10.60;;;30.00;99.90;;;;;;6218585;23;20426;-57
2021/09/08 10:06:50;;;;;;;12.07;11.07;;;30.10;99.90;;;;;;6218519;23;20438;-53
2021/09/08 10:09:23;;;;;;;11.07;10.27;;;30.10;99.90;;;;;;6218723;23;20422;-50
2021/09/08 10:11:54;;;;;;;13.00;10.97;;;29.90;99.90;;;;;;6218580;23;20722;-57
2021/09/08 10:14:27;;;;;;;10.00;9.20;;;30.10;99.90;;;;;;6218398;23;20912;-55
2021/09/08 10:17:01;;;;;;;10.73;9.93;;;29.90;99.90;;;;;;6218544;23;20415;-48
2021/09/08 10:19:29;;;;;;;11.27;10.47;;;30.00;99.90;;;;;;6216647;23;20419;-50
2021/09/08 10:22:08;;;;;;;11.50;10.40;;;29.90;99.90;;;;;;6218543;23;20474;-49
2021/09/08 10:24:35;;;;;;;10.83;9.83;;;30.00;99.90;;;;;;6218011;23;20404;-54
2021/09/08 10:27:20;;;;;;;10.93;9.90;;;30.10;99.90;;;;;;6218023;23;20426;-53
2021/09/08 10:29:55;;;;;;;11.60;10.60;;;30.60;99.90;;;;;;6217935;23;20430;-54
2021/09/08 10:32:27;;;;;;;11.17;10.13;;;30.70;99.90;;;;;;6217550;23;20414;-53
2021/09/08 10:34:57;;;;;;;11.37;10.37;;;30.90;99.90;;;;;;6217941;23;20442;-52
2021/09/08 10:37:27;;;;;;;11.40;10.40;;;30.60;99.90;;;;;;6217669;23;20442;-49
2021/09/08 10:39:55;;;;;;;11.40;9.70;;;30.40;99.90;;;;;;6217696;23;20419;-54
2021/09/08 10:45:23;;;;;;;11.67;10.77;;;30.60;99.90;;;;;;5153878;27;20586;-51
2021/09/08 10:47:54;;;;;;;11.03;10.07;;;30.60;99.90;;;;;;5150683;27;20502;-56
2021/09/08 10:50:41;;;;;;;11.93;10.67;;;30.50;99.90;;;;;;5154256;27;20493;-50
2021/09/08 10:53:31;;;;;;;11.50;10.40;;;30.20;99.90;;;;;;5155728;27;20456;-49
2021/09/08 10:56:06;;;;;;;12.00;11.00;;;30.00;99.90;;;;;;5155977;27;20503;-52
2021/09/08 10:58:59;;;;;;;11.43;10.53;;;30.30;99.90;;;;;;5155403;27;20461;-50
2021/09/08 11:01:30;;;;;;;11.97;10.90;;;30.90;99.90;;;;;;5155799;27;20549;-52
2021/09/08 11:04:02;;;;;;;10.93;10.03;;;30.90;99.90;;;;;;5155555;27;21030;-54
2021/09/08 11:06:37;;;;;;;10.70;9.90;;;30.50;99.90;;;;;;5126449;27;20989;-53
2021/09/08 11:09:06;;;;;;;11.43;10.37;;;30.40;99.90;;;;;;5119024;28;20527;-48
2021/09/08 11:11:36;;;;;;;12.47;10.30;;;30.50;99.90;;;;;;5128556;27;20919;-52
2021/09/08 11:14:03;;;;;;;11.10;10.20;;;30.80;99.90;;;;;;5134712;27;20497;-51
2021/09/08 11:16:33;;;;;;;11.33;10.43;;;31.00;99.90;;;;;;5133020;27;20940;-53
2021/09/08 11:19:05;;;;;;;10.53;9.60;;;31.20;99.90;;;;;;5133712;27;20545;-51
2021/09/08 11:21:36;;;;;;;10.93;10.10;;;31.20;99.90;;;;;;5134811;27;20827;-56
2021/09/08 11:24:06;;;;;;;10.30;9.50;;;31.40;99.90;;;;;;5134233;27;20543;-51
2021/09/08 11:26:35;;;;;;;11.33;10.33;;;31.50;99.90;;;;;;5123359;27;20516;-52
2021/09/08 11:29:05;;;;;;;9.83;9.13;;;31.50;99.90;;;;;;5115247;28;20501;-49
2021/09/08 11:31:43;;;;;;;9.40;8.60;;;31.60;99.90;;;;;;5114161;28;20563;-54
2021/09/08 11:34:24;;;;;;;9.50;8.80;;;31.40;99.90;;;;;;5113842;28;20498;-52
2021/09/08 11:36:52;;;;;;;11.17;10.10;;;31.60;99.90;;;;;;5123821;28;20504;-50
2021/09/08 11:39:20;;;;;;;10.90;9.90;;;31.80;99.90;;;;;;5127068;28;20502;-53
2021/09/08 11:42:04;;;;;;;9.80;9.10;;;31.90;99.90;;;;;;5132470;28;20482;-53
2021/09/08 11:44:34;;;;;;;9.53;8.73;;;32.00;99.90;;;;;;5131001;28;20490;-53
2021/09/08 11:47:14;;;;;;;9.73;8.93;;;31.30;99.90;;;;;;5132343;28;20512;-51
2021/09/08 11:49:41;;;;;;;10.43;9.50;;;31.40;99.90;;;;;;5133074;28;20470;-52
2021/09/08 11:52:16;;;;;;;10.03;9.13;;;31.70;99.90;;;;;;5132981;27;20833;-55
2021/09/08 11:54:54;;;;;;;9.57;8.77;;;31.80;99.90;;;;;;5126855;28;20447;-50
2021/09/08 11:57:26;;;;;;;10.40;9.60;;;31.70;99.90;;;;;;5118313;28;20511;-51
2021/09/08 11:59:53;;;;;;;10.17;9.37;;;31.70;99.90;;;;;;5119092;28;20458;-50
2021/09/08 12:02:29;;;;;;;9.70;8.97;;;31.50;99.90;;;;;;5118667;28;20512;-56
2021/09/08 12:04:56;;;;;;;9.83;9.10;;;31.60;99.90;;;;;;5118196;28;20544;-54
2021/09/08 12:07:33;;;;;;;10.83;10.00;;;31.60;99.90;;;;;;5118529;28;20927;-55
2021/09/08 12:10:07;;;;;;;10.23;9.33;;;31.90;99.90;;;;;;5115740;28;20839;-53
2021/09/08 12:12:35;;;;;;;9.77;9.07;;;32.20;99.90;;;;;;5118703;28;20505;-54
2021/09/08 12:15:04;;;;;;;9.80;8.90;;;32.40;99.90;;;;;;5118186;27;20467;-57
2021/09/08 12:17:36;;;;;;;10.13;9.30;;;32.10;99.90;;;;;;5118934;28;20898;-55
2021/09/08 12:20:08;;;;;;;12.00;8.70;;;32.10;99.90;;;;;;5114547;28;20456;-53
2021/09/08 12:22:39;;;;;;;9.60;9.00;;;31.90;99.90;;;;;;5117915;28;20776;-57
2021/09/08 12:25:17;;;;;;;10.53;9.53;;;32.00;99.90;;;;;;5116560;28;20885;-52
2021/09/08 12:27:45;;;;;;;9.20;8.40;;;31.70;99.90;;;;;;5119141;28;20561;-53
2021/09/08 12:30:24;;;;;;;10.33;8.63;;;31.80;99.90;;;;;;5118776;27;20486;-52
2021/09/08 12:33:00;;;;;;;9.67;8.97;;;32.00;99.90;;;;;;5118238;28;20579;-53
2021/09/08 12:35:40;;;;;;;10.20;9.40;;;32.10;99.90;;;;;;5118789;28;20500;-53
2021/09/08 12:38:40;;;;;;;9.80;9.07;;;31.80;99.90;;;;;;5119289;28;20615;-56
2021/09/08 12:41:10;;;;;;;13.53;12.40;;;31.90;99.90;;;;;;5119298;28;20459;-53
2021/09/08 12:43:42;;;;;;;15.17;13.97;;;31.70;99.90;;;;;;5119197;28;20582;-56